createdAt,value
2022-08-04T00:00:11.966Z,0.88
2022-08-04T00:03:28.093Z,0.90
2022-08-04T00:06:04.817Z,0.90
2022-08-04T00:08:50.366Z,1.00
2022-08-04T00:11:29.777Z,0.80
2022-08-04T00:14:14.806Z,0.77
2022-08-04T00:16:44.749Z,0.90
2022-08-04T00:19:41.038Z,0.85
2022-08-04T00:22:11.441Z,0.82
2022-08-04T00:24:39.645Z,1.02
2022-08-04T00:27:08.699Z,1.00
2022-08-04T00:29:38.911Z,0.90
2022-08-04T00:32:08.698Z,0.90
2022-08-04T00:34:37.783Z,0.90
2022-08-04T00:37:26.089Z,0.90
2022-08-04T00:39:56.115Z,0.88
2022-08-04T00:42:59.270Z,1.10
2022-08-04T00:46:13.458Z,1.17
2022-08-04T00:49:17.733Z,1.25
2022-08-04T00:52:32.164Z,1.02
2022-08-04T00:55:09.135Z,1.00
2022-08-04T00:58:27.614Z,0.93
2022-08-04T01:01:07.127Z,0.90
2022-08-04T01:04:09.532Z,1.10
2022-08-04T01:07:19.903Z,0.90
2022-08-04T01:10:05.123Z,1.05
2022-08-04T01:13:22.070Z,1.10
2022-08-04T01:16:11.278Z,1.02
2022-08-04T01:19:00.700Z,0.90
2022-08-04T01:21:30.579Z,1.17
2022-08-04T01:24:05.771Z,1.10
2022-08-04T01:27:18.276Z,1.10
2022-08-04T01:29:55.689Z,1.10
2022-08-04T01:32:36.270Z,1.08
2022-08-04T01:35:21.845Z,1.00
2022-08-04T01:38:30.426Z,1.17
2022-08-04T01:41:03.383Z,0.90
2022-08-04T01:43:33.799Z,1.00
2022-08-04T01:46:04.302Z,0.90
2022-08-04T01:48:32.752Z,0.95
2022-08-04T01:51:06.909Z,0.95
2022-08-04T01:53:38.854Z,0.75
2022-08-04T01:56:08.960Z,1.10
2022-08-04T01:58:38.244Z,1.20
2022-08-04T02:01:09.643Z,0.77
2022-08-04T02:04:20.426Z,1.00
2022-08-04T02:06:38.976Z,0.85
2022-08-04T02:09:54.185Z,0.90
2022-08-04T02:12:43.250Z,0.95
2022-08-04T02:15:45.203Z,1.00
2022-08-04T02:18:50.714Z,0.95
2022-08-04T02:21:20.627Z,1.13
2022-08-04T02:23:55.895Z,1.50
2022-08-04T02:26:28.677Z,1.20
2022-08-04T02:29:13.483Z,1.27
2022-08-04T02:31:58.026Z,1.25
2022-08-04T02:34:42.173Z,1.20
2022-08-04T02:37:11.924Z,1.30
2022-08-04T02:39:48.949Z,1.00
2022-08-04T02:42:17.567Z,0.90
2022-08-04T02:44:52.322Z,1.13
2022-08-04T02:48:29.357Z,1.10
2022-08-04T02:50:29.037Z,1.20
2022-08-04T02:53:00.711Z,1.08
2022-08-04T02:55:29.870Z,1.30
2022-08-04T02:58:01.989Z,1.08
2022-08-04T03:00:30.239Z,0.95
2022-08-04T03:03:13.511Z,1.13
2022-08-04T03:06:13.264Z,1.05
2022-08-04T03:08:51.885Z,0.98
2022-08-04T03:11:37.526Z,1.10
2022-08-04T03:14:43.359Z,0.80
2022-08-04T03:17:31.170Z,1.13
2022-08-04T03:20:45.317Z,1.00
2022-08-04T03:24:10.256Z,1.17
2022-08-04T03:27:36.568Z,1.10
2022-08-04T03:31:07.867Z,1.30
2022-08-04T03:36:17.901Z,1.13
2022-08-04T03:39:26.724Z,1.38
2022-08-04T03:42:04.354Z,1.02
2022-08-04T03:48:12.220Z,0.93
2022-08-04T03:51:34.927Z,1.10
2022-08-04T03:54:24.139Z,1.08
2022-08-04T03:57:34.023Z,1.20
2022-08-04T04:00:18.841Z,1.20
2022-08-04T04:03:00.630Z,1.30
2022-08-04T04:06:00.177Z,1.25
2022-08-04T04:08:50.127Z,0.98
2022-08-04T04:11:55.363Z,1.20
2022-08-04T04:14:59.914Z,1.10
2022-08-04T04:17:51.055Z,1.13
2022-08-04T04:20:51.142Z,1.00
2022-08-04T04:23:51.382Z,0.98
2022-08-04T04:26:55.172Z,1.10
2022-08-04T04:30:11.343Z,1.17
2022-08-04T04:33:27.879Z,1.00
2022-08-04T04:36:43.747Z,1.30
2022-08-04T04:39:57.975Z,1.23
2022-08-04T04:42:59.175Z,1.13
2022-08-04T04:46:15.907Z,1.02
2022-08-04T04:48:51.219Z,1.00
2022-08-04T04:51:33.546Z,1.13
2022-08-04T04:54:21.551Z,1.52
2022-08-04T04:57:15.972Z,1.10
2022-08-04T05:00:12.183Z,1.00
2022-08-04T05:03:09.363Z,1.00
2022-08-04T05:06:10.843Z,1.15
2022-08-04T05:09:05.450Z,1.27
2022-08-04T05:14:33.077Z,1.23
2022-08-04T05:15:12.526Z,0.95
2022-08-04T05:17:43.592Z,1.10
2022-08-04T05:20:23.819Z,1.25
2022-08-04T05:23:18.608Z,1.10
2022-08-04T05:25:59.366Z,1.05
2022-08-04T05:28:41.165Z,1.10
2022-08-04T05:31:20.134Z,1.17
2022-08-04T05:34:09.621Z,0.98
2022-08-04T05:36:48.799Z,1.17
2022-08-04T05:39:32.342Z,1.27
2022-08-04T05:42:04.774Z,0.95
2022-08-04T05:44:34.886Z,1.02
2022-08-04T05:47:04.329Z,1.10
2022-08-04T05:49:33.264Z,0.90
2022-08-04T05:52:03.350Z,0.90
2022-08-04T05:54:35.826Z,1.02
2022-08-04T05:57:08.707Z,1.27
2022-08-04T05:59:40.802Z,1.13
2022-08-04T06:02:10.025Z,1.23
2022-08-04T06:04:42.598Z,1.00
2022-08-04T06:07:13.261Z,1.10
2022-08-04T06:09:43.947Z,1.08
2022-08-04T06:12:30.999Z,1.30
2022-08-04T06:15:01.215Z,1.30
2022-08-04T06:18:33.491Z,1.35
2022-08-04T06:20:34.756Z,1.55
2022-08-04T06:23:08.729Z,1.20
2022-08-04T06:25:46.370Z,1.00
2022-08-04T06:28:15.803Z,1.40
2022-08-04T06:30:47.691Z,1.05
2022-08-04T06:33:54.473Z,1.20
2022-08-04T06:36:20.807Z,1.20
2022-08-04T06:38:52.078Z,1.10
2022-08-04T06:43:55.260Z,0.90
2022-08-04T06:46:22.800Z,1.17
2022-08-04T06:48:51.495Z,1.27
2022-08-04T06:51:32.024Z,1.42
2022-08-04T06:54:02.909Z,1.30
2022-08-04T06:59:02.551Z,0.95
2022-08-04T07:01:31.554Z,1.15
2022-08-04T07:03:59.923Z,1.35
2022-08-04T07:06:27.180Z,1.05
2022-08-04T07:08:56.401Z,1.02
2022-08-04T07:11:24.694Z,1.20
2022-08-04T07:13:52.474Z,2.05
2022-08-04T07:16:31.006Z,1.60
2022-08-04T07:18:58.270Z,1.38
2022-08-04T07:21:39.455Z,1.58
2022-08-04T07:24:06.833Z,1.30
2022-08-04T07:26:34.888Z,1.48
2022-08-04T07:29:02.382Z,1.13
2022-08-04T07:31:33.593Z,1.02
2022-08-04T07:34:21.132Z,1.30
2022-08-04T07:36:55.934Z,1.17
2022-08-04T07:39:29.526Z,0.82
2022-08-04T07:42:01.622Z,1.08
2022-08-04T07:44:31.081Z,1.58
2022-08-04T07:46:59.199Z,1.50
2022-08-04T07:49:57.302Z,1.27
2022-08-04T07:52:14.757Z,1.30
2022-08-04T07:54:42.898Z,1.42
2022-08-04T07:57:18.967Z,2.10
2022-08-04T07:59:50.141Z,1.43
2022-08-04T08:02:22.069Z,1.42
2022-08-04T08:04:49.726Z,1.10
2022-08-04T08:07:19.852Z,1.52
2022-08-04T08:09:46.986Z,1.65
2022-08-04T08:12:36.578Z,1.20
2022-08-04T08:15:02.379Z,1.55
2022-08-04T08:17:29.266Z,1.33
2022-08-04T08:19:56.152Z,1.20
2022-08-04T08:22:23.135Z,1.50
2022-08-04T08:24:50.240Z,1.25
2022-08-04T08:29:45.046Z,1.00
2022-08-04T08:32:16.029Z,1.10
2022-08-04T08:34:45.204Z,1.45
2022-08-04T08:37:45.035Z,1.25
2022-08-04T08:40:39.237Z,1.13
2022-08-04T08:44:06.150Z,1.17
2022-08-04T08:46:49.516Z,0.88
2022-08-04T08:50:00.142Z,0.90
2022-08-04T08:52:56.333Z,0.85
2022-08-04T08:56:13.204Z,1.10
2022-08-04T08:59:28.986Z,0.90
2022-08-04T09:02:28.138Z,1.20
2022-08-04T09:05:28.506Z,0.95
2022-08-04T09:08:08.288Z,1.10
2022-08-04T09:10:53.011Z,1.00
2022-08-04T09:13:36.704Z,0.90
2022-08-04T09:16:32.571Z,0.93
2022-08-04T09:19:37.606Z,1.00
2022-08-04T09:22:35.267Z,1.10
2022-08-04T09:25:34.571Z,0.90
2022-08-04T09:28:37.166Z,1.00
2022-08-04T09:31:17.223Z,0.82
2022-08-04T09:34:18.575Z,0.88
2022-08-04T09:37:10.557Z,0.85
2022-08-04T09:40:14.497Z,1.30
2022-08-04T09:43:13.319Z,1.13
2022-08-04T09:45:58.275Z,1.20
2022-08-04T09:48:47.824Z,1.17
2022-08-04T09:51:57.166Z,0.90
2022-08-04T09:54:57.472Z,1.10
2022-08-04T09:57:45.579Z,1.10
2022-08-04T10:00:17.068Z,1.05
2022-08-04T10:02:55.456Z,1.02
2022-08-04T10:05:49.918Z,0.90
2022-08-04T10:09:12.700Z,0.75
2022-08-04T10:11:58.543Z,0.77
2022-08-04T10:14:52.185Z,0.73
2022-08-04T10:17:33.664Z,0.80
2022-08-04T10:21:00.198Z,0.63
2022-08-04T10:24:00.236Z,0.75
2022-08-04T10:27:04.338Z,0.90
2022-08-04T10:29:49.444Z,0.68
2022-08-04T10:32:25.589Z,0.70
2022-08-04T10:35:18.334Z,0.70
2022-08-04T10:38:27.003Z,0.68
2022-08-04T10:43:51.983Z,0.60
2022-08-04T10:46:30.075Z,0.60
2022-08-04T10:49:07.382Z,0.57
2022-08-04T10:51:57.979Z,0.50
2022-08-04T10:54:51.572Z,0.57
2022-08-04T10:57:55.827Z,0.30
2022-08-04T11:00:27.738Z,0.50
2022-08-04T11:03:16.609Z,0.70
2022-08-04T11:05:56.212Z,0.68
2022-08-04T11:08:37.520Z,0.50
2022-08-04T11:11:17.948Z,0.60
2022-08-04T11:13:52.743Z,0.60
2022-08-04T11:16:35.921Z,0.60
2022-08-04T11:19:45.158Z,0.52
2022-08-04T11:22:25.481Z,0.45
2022-08-04T11:25:20.932Z,0.43
2022-08-04T11:29:03.419Z,0.70
2022-08-04T11:31:43.404Z,0.52
2022-08-04T11:34:28.064Z,0.60
2022-08-04T11:37:20.866Z,0.50
2022-08-04T11:40:29.187Z,0.50
2022-08-04T11:43:02.196Z,0.50
2022-08-04T11:45:40.659Z,0.40
2022-08-04T11:48:16.115Z,0.40
2022-08-04T11:50:53.989Z,0.63
2022-08-04T11:53:26.570Z,0.50
2022-08-04T11:56:11.263Z,0.40
2022-08-04T11:58:39.798Z,0.60
2022-08-04T12:01:25.690Z,0.50
2022-08-04T12:04:26.837Z,0.50
2022-08-04T12:07:31.357Z,0.52
2022-08-04T12:10:50.178Z,0.65
2022-08-04T12:13:43.924Z,0.57
2022-08-04T12:16:32.713Z,0.40
2022-08-04T12:19:17.760Z,0.50
2022-08-04T12:22:00.146Z,0.47
2022-08-04T12:25:09.999Z,0.50
2022-08-04T12:27:57.205Z,0.50
2022-08-04T12:30:58.687Z,0.40
2022-08-04T12:34:03.308Z,0.50
2022-08-04T12:36:31.465Z,0.77
2022-08-04T12:39:20.764Z,0.50
2022-08-04T12:42:23.134Z,0.40
2022-08-04T12:44:54.062Z,0.60
2022-08-04T12:47:29.529Z,0.98
2022-08-04T12:50:03.849Z,0.60
2022-08-04T12:55:33.394Z,0.50
2022-08-04T12:58:04.044Z,0.50
2022-08-04T13:00:43.810Z,0.60
2022-08-04T13:03:16.686Z,0.50
2022-08-04T13:05:45.569Z,0.70
2022-08-04T13:08:15.491Z,0.65
2022-08-04T13:10:47.882Z,1.02
2022-08-04T13:13:26.930Z,0.40
2022-08-04T13:16:05.617Z,0.50
2022-08-04T13:18:40.072Z,0.60
2022-08-04T13:21:20.317Z,0.60
2022-08-04T13:24:19.460Z,0.57
2022-08-04T13:27:06.075Z,0.50
2022-08-04T13:29:59.305Z,0.47
2022-08-04T13:32:31.536Z,0.45
2022-08-04T13:35:02.291Z,0.43
2022-08-04T13:37:36.020Z,0.50
2022-08-04T13:40:09.080Z,0.40
2022-08-04T13:42:38.666Z,0.70
2022-08-04T13:45:08.861Z,0.57
2022-08-04T13:47:40.275Z,0.50
2022-08-04T13:50:27.481Z,0.40
2022-08-04T13:52:58.555Z,0.35
2022-08-04T13:55:35.387Z,0.50
2022-08-04T14:00:49.749Z,0.30
2022-08-04T14:03:32.464Z,0.50
2022-08-04T14:06:31.703Z,0.60
2022-08-04T14:09:14.810Z,0.40
2022-08-04T14:12:09.717Z,0.43
2022-08-04T14:14:52.876Z,0.38
2022-08-04T14:17:30.606Z,0.57
2022-08-04T14:20:02.131Z,0.88
2022-08-04T14:22:29.052Z,0.57
2022-08-04T14:25:15.149Z,0.60
2022-08-04T14:27:54.918Z,0.80
2022-08-04T14:30:24.812Z,0.60
2022-08-04T14:34:01.576Z,0.80
2022-08-04T14:35:59.577Z,0.60
2022-08-04T14:38:58.506Z,0.50
2022-08-04T14:41:43.856Z,0.88
2022-08-04T14:44:10.721Z,0.60
2022-08-04T14:46:52.856Z,0.55
2022-08-04T14:49:20.806Z,0.55
2022-08-04T14:52:01.687Z,0.90
2022-08-04T14:54:35.779Z,0.50
2022-08-04T14:57:08.515Z,0.60
2022-08-04T14:59:59.566Z,0.60
2022-08-04T15:02:30.316Z,0.63
2022-08-04T15:04:59.192Z,0.57
2022-08-04T15:07:46.517Z,0.45
2022-08-04T15:10:13.669Z,0.43
2022-08-04T15:12:40.825Z,0.70
2022-08-04T15:15:33.996Z,0.55
2022-08-04T15:20:23.289Z,0.55
2022-08-04T15:22:50.527Z,0.60
2022-08-04T15:25:18.083Z,0.50
2022-08-04T15:27:51.247Z,0.60
2022-08-04T15:30:18.863Z,0.45
2022-08-04T15:32:53.296Z,0.65
2022-08-04T15:35:31.997Z,0.60
2022-08-04T15:38:31.200Z,0.35
2022-08-04T15:41:10.166Z,0.55
2022-08-04T15:44:03.355Z,0.43
2022-08-04T15:47:12.407Z,0.60
2022-08-04T15:49:40.849Z,0.60
2022-08-04T15:52:18.131Z,0.47
2022-08-04T15:54:52.719Z,0.45
2022-08-04T15:58:00.223Z,0.50
2022-08-04T16:00:27.902Z,0.60
2022-08-04T16:02:55.846Z,0.70
2022-08-04T16:05:23.407Z,0.77
2022-08-04T16:08:12.341Z,0.50
2022-08-04T16:10:43.307Z,0.70
2022-08-04T16:13:16.916Z,0.60
2022-08-04T16:15:56.952Z,0.47
2022-08-04T16:18:30.426Z,0.43
2022-08-04T16:21:05.920Z,0.65
2022-08-04T16:24:00.659Z,0.60
2022-08-04T16:26:45.089Z,0.50
2022-08-04T16:29:36.695Z,0.60
2022-08-04T16:32:19.556Z,0.55
2022-08-04T16:35:17.811Z,0.60
2022-08-04T16:37:44.716Z,0.70
2022-08-04T16:40:39.222Z,0.60
2022-08-04T16:43:16.403Z,0.60
2022-08-04T16:48:33.740Z,0.50
2022-08-04T16:51:14.443Z,0.50
2022-08-04T16:54:03.028Z,0.70
2022-08-04T16:56:35.262Z,0.57
2022-08-04T16:59:09.225Z,0.60
2022-08-04T17:01:38.746Z,0.57
2022-08-04T17:04:06.857Z,0.50
2022-08-04T17:06:40.918Z,0.70
2022-08-04T17:09:14.870Z,0.60
2022-08-04T17:11:44.158Z,0.50
2022-08-04T17:14:12.406Z,0.43
2022-08-04T17:16:42.550Z,0.82
2022-08-04T17:19:24.422Z,0.50
2022-08-04T17:22:06.001Z,0.77
2022-08-04T17:24:36.845Z,0.70
2022-08-04T17:28:08.509Z,0.60
2022-08-04T17:29:52.648Z,0.70
2022-08-04T17:32:22.942Z,0.55
2022-08-04T17:34:53.243Z,0.60
2022-08-04T17:37:36.472Z,0.50
2022-08-04T17:40:22.425Z,0.50
2022-08-04T17:44:04.146Z,0.55
2022-08-04T17:46:35.763Z,0.50
2022-08-04T17:49:19.715Z,0.55
2022-08-04T17:52:06.614Z,0.60
2022-08-04T17:54:40.321Z,0.60
2022-08-04T17:57:20.980Z,0.60
2022-08-04T17:59:57.640Z,0.50
2022-08-04T18:02:32.900Z,0.60
2022-08-04T18:05:11.909Z,0.70
2022-08-04T18:08:42.819Z,0.60
2022-08-04T18:10:52.303Z,0.60
2022-08-04T18:13:25.465Z,0.75
2022-08-04T18:16:04.906Z,0.65
2022-08-04T18:18:32.276Z,0.60
2022-08-04T18:21:03.426Z,0.50
2022-08-04T18:23:33.255Z,0.47
2022-08-04T18:26:01.988Z,0.60
2022-08-04T18:28:32.966Z,0.60
2022-08-04T18:31:00.767Z,0.75
2022-08-04T18:33:40.392Z,0.70
2022-08-04T18:36:35.479Z,0.70
2022-08-04T18:39:11.939Z,0.70
2022-08-04T18:42:01.137Z,0.50
2022-08-04T18:44:29.310Z,0.75
2022-08-04T18:46:57.391Z,0.73
2022-08-04T18:51:01.773Z,1.67
2022-08-04T18:52:31.264Z,0.95
2022-08-04T18:55:03.629Z,0.70
2022-08-04T18:57:59.817Z,1.00
2022-08-04T19:00:20.144Z,0.70
2022-08-04T19:02:47.585Z,0.70
2022-08-04T19:05:17.496Z,0.60
2022-08-04T19:08:01.786Z,0.80
2022-08-04T19:10:29.881Z,0.90
2022-08-04T19:12:59.563Z,0.90
2022-08-04T19:15:34.245Z,0.60
2022-08-04T19:18:02.379Z,0.70
2022-08-04T19:20:37.165Z,1.00
2022-08-04T19:24:11.144Z,0.70
2022-08-04T19:28:35.536Z,0.70
2022-08-04T19:31:08.897Z,0.80
2022-08-04T19:33:59.507Z,0.60
2022-08-04T19:36:29.483Z,0.82
2022-08-04T19:39:00.616Z,0.85
2022-08-04T19:41:29.693Z,0.80
2022-08-04T19:43:58.239Z,0.75
2022-08-04T19:48:59.797Z,0.60
2022-08-04T19:51:32.929Z,0.80
2022-08-04T19:54:02.810Z,0.60
2022-08-04T19:56:40.565Z,0.70
2022-08-04T19:59:10.226Z,0.73
2022-08-04T20:01:44.662Z,0.82
2022-08-04T20:04:14.264Z,0.80
2022-08-04T20:06:42.491Z,0.90
2022-08-04T20:09:25.478Z,0.90
2022-08-04T20:11:55.178Z,1.10
2022-08-04T20:14:32.881Z,1.20
2022-08-04T20:17:10.230Z,1.02
2022-08-04T20:19:38.455Z,1.10
2022-08-04T20:22:06.223Z,1.10
2022-08-04T20:25:00.990Z,0.98
2022-08-04T20:27:59.676Z,0.80
2022-08-04T20:30:29.339Z,0.93
2022-08-04T20:32:57.618Z,1.10
2022-08-04T20:35:26.972Z,1.02
2022-08-04T20:38:00.356Z,1.00
2022-08-04T20:40:30.058Z,0.95
2022-08-04T20:42:58.968Z,1.10
2022-08-04T20:45:56.998Z,1.20
2022-08-04T20:48:13.681Z,0.80
2022-08-04T20:50:40.650Z,0.95
2022-08-04T20:53:16.173Z,0.80
2022-08-04T20:55:54.627Z,1.00
2022-08-04T20:58:27.582Z,0.95
2022-08-04T21:00:55.871Z,0.77
2022-08-04T21:03:49.853Z,1.20
2022-08-04T21:06:10.962Z,0.70
2022-08-04T21:08:37.909Z,1.20
2022-08-04T21:11:06.761Z,0.75
2022-08-04T21:13:52.389Z,1.20
2022-08-04T21:21:55.259Z,0.90
2022-08-04T21:27:10.872Z,0.98
2022-08-04T21:29:39.459Z,0.95
2022-08-04T21:34:39.249Z,1.20
2022-08-04T21:37:10.312Z,0.90
2022-08-04T21:39:50.114Z,0.85
2022-08-04T21:42:29.256Z,1.08
2022-08-04T21:44:58.039Z,1.00
2022-08-04T21:47:25.022Z,0.90
2022-08-04T21:49:56.581Z,1.17
2022-08-04T21:52:25.164Z,1.00
2022-08-04T21:54:54.088Z,1.00
2022-08-04T21:57:24.800Z,1.00
2022-08-04T21:59:52.723Z,0.80
2022-08-04T22:02:19.829Z,0.82
2022-08-04T22:07:16.374Z,0.93
2022-08-04T22:10:00.068Z,0.77
2022-08-04T22:12:29.892Z,0.98
2022-08-04T22:14:59.793Z,0.80
2022-08-04T22:17:34.991Z,1.00
2022-08-04T22:20:03.907Z,0.90
2022-08-04T22:22:35.112Z,1.00
2022-08-04T22:28:00.736Z,1.20
2022-08-04T22:30:36.352Z,0.93
2022-08-04T22:33:08.182Z,0.88
2022-08-04T22:35:48.738Z,0.90
2022-08-04T22:38:28.007Z,0.80
2022-08-04T22:41:17.384Z,1.40
2022-08-04T22:43:47.630Z,1.00
2022-08-04T22:46:28.667Z,1.10
2022-08-04T22:48:55.725Z,1.10
2022-08-04T22:51:23.969Z,1.05
2022-08-04T22:53:54.169Z,0.90
2022-08-04T22:56:38.480Z,0.80
2022-08-04T22:59:11.158Z,0.90
2022-08-04T23:01:58.083Z,0.95
2022-08-04T23:04:27.303Z,1.10
2022-08-04T23:06:54.476Z,0.98
2022-08-04T23:09:48.905Z,0.80
2022-08-04T23:12:24.463Z,0.93
2022-08-04T23:14:55.406Z,0.90
2022-08-04T23:17:23.608Z,1.00
2022-08-04T23:19:57.398Z,0.90
2022-08-04T23:22:41.232Z,0.85
2022-08-04T23:25:16.503Z,0.93
2022-08-04T23:27:50.952Z,1.27
2022-08-04T23:30:29.731Z,0.80
2022-08-04T23:32:58.027Z,0.90
2022-08-04T23:35:25.262Z,1.00
2022-08-04T23:37:56.999Z,1.00
2022-08-04T23:40:33.988Z,0.88
2022-08-04T23:43:17.321Z,0.95
2022-08-04T23:46:04.682Z,1.05
2022-08-04T23:48:39.310Z,0.98
2022-08-04T23:51:15.015Z,1.00
2022-08-04T23:54:03.674Z,0.90
2022-08-04T23:56:34.760Z,1.00
2022-08-04T23:59:03.809Z,1.10
